Time;durP1;ratioP1;P1;durP2;ratioP2;P2;SDS_P1;SDS_P2;PMS_P1;PMS_P2;Temp;Humidity;BMP_temperature;BMP_pressure;BME280_temperature;BME280_humidity;BME280_pressure;Samples;Min_cycle;Max_cycle;Signal;HPM_P1;HPM_P2
2021/11/06 00:02:08;;;;;;;9.68;4.40;;;12.70;53.70;;;;;;6196358;28;20034;-71
2021/11/06 00:05:09;;;;;;;4.75;3.13;;;12.70;53.70;;;;;;6198664;28;20072;-70
2021/11/06 00:08:10;;;;;;;6.65;3.80;;;12.70;53.80;;;;;;6196601;28;20125;-71
2021/11/06 00:11:10;;;;;;;8.05;3.88;;;12.70;53.90;;;;;;6195899;28;20026;-71
2021/11/06 00:14:11;;;;;;;7.68;3.83;;;12.60;54.60;;;;;;6194171;28;20058;-70
2021/11/06 00:17:12;;;;;;;13.27;3.90;;;12.60;54.00;;;;;;6196928;28;20030;-71
2021/11/06 00:20:15;;;;;;;11.05;3.53;;;12.60;54.00;;;;;;6195622;28;20124;-71
2021/11/06 00:23:16;;;;;;;6.57;3.50;;;12.60;54.10;;;;;;6196022;28;20761;-69
2021/11/06 00:26:17;;;;;;;14.38;4.20;;;12.60;54.20;;;;;;6194284;28;20062;-70
2021/11/06 00:29:19;;;;;;;9.93;4.68;;;12.60;54.30;;;;;;6190038;28;20084;-70
2021/11/06 00:32:20;;;;;;;9.10;4.60;;;12.60;54.30;;;;;;6197208;28;20062;-70
2021/11/06 00:35:22;;;;;;;7.05;3.60;;;12.60;54.30;;;;;;6193883;28;20030;-70
2021/11/06 00:38:23;;;;;;;7.55;4.13;;;12.60;54.30;;;;;;6193624;28;20022;-70
2021/11/06 00:41:24;;;;;;;6.43;3.58;;;12.70;54.40;;;;;;6197120;28;20082;-70
2021/11/06 00:44:25;;;;;;;10.02;4.18;;;12.70;54.30;;;;;;6196674;28;20411;-70
2021/11/06 00:47:25;;;;;;;8.43;3.00;;;12.70;54.30;;;;;;6197022;28;20036;-71
2021/11/06 00:50:26;;;;;;;8.70;3.85;;;12.60;54.20;;;;;;6206892;28;20038;-71
2021/11/06 00:53:27;;;;;;;5.15;3.70;;;12.60;54.20;;;;;;6196504;28;20026;-70
2021/11/06 00:56:28;;;;;;;6.97;3.53;;;12.60;54.20;;;;;;6194420;28;20033;-70
2021/11/06 00:59:30;;;;;;;6.10;3.08;;;12.60;54.10;;;;;;6196319;28;20022;-70
2021/11/06 01:02:31;;;;;;;4.72;2.60;;;12.60;54.00;;;;;;6193351;28;20436;-70
2021/11/06 01:05:32;;;;;;;4.78;2.90;;;12.50;53.90;;;;;;6195095;28;20034;-70
2021/11/06 01:08:32;;;;;;;14.75;2.97;;;12.50;54.00;;;;;;6191962;28;20356;-70
2021/11/06 01:11:34;;;;;;;7.80;3.60;;;12.40;53.90;;;;;;6197194;28;20088;-70
2021/11/06 01:14:35;;;;;;;5.28;3.20;;;12.40;54.00;;;;;;6195114;28;20034;-71
2021/11/06 01:17:36;;;;;;;13.60;3.08;;;12.40;54.10;;;;;;6194948;28;20089;-71
2021/11/06 01:20:37;;;;;;;9.13;3.47;;;12.30;54.00;;;;;;6197263;28;20030;-70
2021/11/06 01:23:38;;;;;;;6.22;2.65;;;12.40;54.00;;;;;;6193095;28;20054;-72
2021/11/06 01:26:39;;;;;;;4.72;2.95;;;12.40;54.00;;;;;;6195915;28;20030;-70
2021/11/06 01:29:40;;;;;;;4.95;2.38;;;12.30;53.90;;;;;;6189935;28;20038;-70
2021/11/06 01:32:44;;;;;;;5.78;3.17;;;12.30;53.80;;;;;;6195019;28;20122;-70
2021/11/06 01:35:45;;;;;;;17.02;3.40;;;12.30;53.90;;;;;;6191613;28;20026;-70
2021/11/06 01:38:45;;;;;;;7.80;3.28;;;12.30;53.90;;;;;;6193913;28;20041;-70
2021/11/06 01:41:47;;;;;;;7.45;3.70;;;12.30;53.80;;;;;;6192393;28;20494;-70
2021/11/06 01:44:48;;;;;;;6.55;3.40;;;12.30;53.70;;;;;;6194975;28;20034;-70
2021/11/06 01:47:50;;;;;;;6.88;3.13;;;12.30;53.60;;;;;;6197022;28;20038;-69
2021/11/06 01:50:51;;;;;;;6.95;3.60;;;12.30;53.60;;;;;;6192550;28;20411;-69
2021/11/06 01:53:52;;;;;;;4.88;2.53;;;12.30;53.60;;;;;;6192520;28;20474;-69
2021/11/06 01:56:56;;;;;;;16.17;3.22;;;12.30;54.10;;;;;;6190329;28;20033;-69
2021/11/06 01:59:57;;;;;;;4.43;2.60;;;12.30;53.40;;;;;;6190675;28;20022;-70
2021/11/06 02:02:58;;;;;;;6.15;2.83;;;12.20;53.40;;;;;;6194305;28;20030;-69
2021/11/06 02:05:59;;;;;;;7.00;3.03;;;12.20;53.40;;;;;;6192820;28;20379;-70
2021/11/06 02:09:00;;;;;;;6.57;3.20;;;12.20;53.40;;;;;;6205717;28;20038;-70
2021/11/06 02:12:01;;;;;;;4.47;2.80;;;12.20;53.30;;;;;;6199701;28;20034;-69
2021/11/06 02:15:04;;;;;;;6.22;3.17;;;12.20;53.30;;;;;;6199323;28;20374;-70
2021/11/06 02:18:06;;;;;;;9.38;3.10;;;12.10;53.30;;;;;;6200357;28;20528;-70
2021/11/06 02:21:09;;;;;;;9.25;3.72;;;12.10;53.30;;;;;;6200170;28;20034;-69
2021/11/06 02:24:10;;;;;;;5.55;3.38;;;12.10;53.30;;;;;;6193582;28;21038;-70
2021/11/06 02:27:10;;;;;;;6.18;3.25;;;12.10;53.40;;;;;;6197606;28;20030;-70
2021/11/06 02:30:14;;;;;;;7.25;3.13;;;12.00;53.40;;;;;;6196977;28;20031;-70
2021/11/06 02:33:15;;;;;;;5.57;2.75;;;12.00;53.40;;;;;;6199426;28;20165;-70
2021/11/06 02:36:16;;;;;;;9.48;3.53;;;12.00;53.50;;;;;;6197995;28;20034;-69
2021/11/06 02:39:17;;;;;;;7.28;3.70;;;12.00;53.60;;;;;;6211352;28;20050;-69
2021/11/06 02:42:18;;;;;;;6.75;3.10;;;11.90;53.50;;;;;;6210268;28;20415;-69
2021/11/06 02:45:20;;;;;;;10.88;3.53;;;11.90;53.60;;;;;;6198163;28;20062;-71
2021/11/06 02:48:21;;;;;;;12.98;3.60;;;11.80;53.70;;;;;;6199063;28;20027;-70
2021/11/06 02:51:22;;;;;;;8.27;3.80;;;11.80;53.70;;;;;;6195288;28;20364;-71
2021/11/06 02:54:24;;;;;;;13.52;3.70;;;11.80;53.80;;;;;;6195552;28;20028;-71
2021/11/06 02:57:24;;;;;;;9.80;3.72;;;11.70;53.80;;;;;;6198787;28;20023;-71
2021/11/06 03:00:27;;;;;;;6.90;3.22;;;11.70;53.80;;;;;;6198727;28;20026;-70
2021/11/06 03:03:28;;;;;;;7.50;3.22;;;11.70;53.90;;;;;;6199151;28;20102;-70
2021/11/06 03:06:29;;;;;;;6.53;3.00;;;11.60;53.80;;;;;;6199147;28;20513;-70
2021/11/06 03:09:30;;;;;;;6.13;2.92;;;11.60;54.00;;;;;;6208051;28;20035;-70
2021/11/06 03:12:31;;;;;;;6.30;2.90;;;11.60;54.10;;;;;;6196176;28;20034;-70
2021/11/06 03:15:32;;;;;;;7.85;3.78;;;11.60;54.00;;;;;;6196675;28;20072;-70
2021/11/06 03:18:34;;;;;;;5.95;2.85;;;11.60;54.10;;;;;;6195094;28;20038;-70
2021/11/06 03:21:35;;;;;;;6.10;3.58;;;11.60;54.00;;;;;;6196393;28;20057;-70
2021/11/06 03:24:36;;;;;;;6.65;3.35;;;11.60;54.00;;;;;;6208391;28;20049;-71
2021/11/06 03:27:38;;;;;;;4.63;2.95;;;11.60;53.90;;;;;;6194207;28;20057;-70
2021/11/06 03:30:39;;;;;;;10.85;2.72;;;11.70;53.80;;;;;;6195934;28;20113;-70
2021/11/06 03:33:39;;;;;;;5.75;2.83;;;11.70;53.80;;;;;;6198348;28;20037;-70
2021/11/06 03:36:41;;;;;;;7.47;3.28;;;11.70;53.70;;;;;;6197125;28;20022;-70
2021/11/06 03:39:42;;;;;;;6.60;2.72;;;11.60;53.70;;;;;;6197425;28;20049;-70
2021/11/06 03:42:43;;;;;;;5.30;3.05;;;11.60;53.60;;;;;;6198225;28;20030;-70
2021/11/06 03:45:44;;;;;;;5.28;2.75;;;11.60;53.50;;;;;;6199247;28;20471;-69
2021/11/06 03:48:45;;;;;;;6.30;2.83;;;11.60;53.50;;;;;;6195291;28;20030;-69
2021/11/06 03:51:46;;;;;;;6.53;3.22;;;11.60;53.60;;;;;;6197387;28;20034;-69
2021/11/06 03:54:47;;;;;;;7.78;3.13;;;11.60;53.60;;;;;;6199569;28;20030;-69
2021/11/06 03:57:48;;;;;;;5.03;2.53;;;11.50;53.50;;;;;;6208421;28;20049;-69
2021/11/06 04:00:49;;;;;;;4.43;2.50;;;11.50;53.40;;;;;;6197733;28;20512;-69
2021/11/06 04:03:50;;;;;;;5.78;2.75;;;11.50;53.40;;;;;;6198016;28;20032;-71
2021/11/06 04:06:51;;;;;;;9.10;2.72;;;11.40;53.40;;;;;;6194703;28;20419;-69
2021/11/06 04:09:52;;;;;;;5.75;2.70;;;11.30;53.50;;;;;;6192187;28;20065;-71
2021/11/06 04:12:53;;;;;;;5.28;2.42;;;11.30;53.50;;;;;;6194602;28;20062;-69
2021/11/06 04:15:54;;;;;;;6.15;2.67;;;11.40;53.40;;;;;;6194783;28;20474;-69
2021/11/06 04:18:55;;;;;;;6.95;2.80;;;11.30;53.40;;;;;;6195738;28;20030;-69
2021/11/06 04:21:56;;;;;;;6.65;2.75;;;11.30;53.50;;;;;;6194995;28;20033;-69
2021/11/06 04:24:57;;;;;;;6.97;2.53;;;11.20;53.40;;;;;;6193088;28;20038;-70
2021/11/06 04:27:58;;;;;;;8.40;3.42;;;11.20;53.50;;;;;;6180591;28;20053;-69
2021/11/06 04:30:59;;;;;;;19.67;3.50;;;11.20;53.60;;;;;;6196442;28;20030;-71
2021/11/06 04:34:02;;;;;;;5.53;2.78;;;11.20;53.60;;;;;;6196765;28;20030;-70
2021/11/06 04:37:03;;;;;;;14.30;3.15;;;11.10;53.60;;;;;;6195367;28;20086;-70
2021/11/06 04:40:07;;;;;;;3.95;2.67;;;11.10;53.50;;;;;;6195173;28;20046;-70
2021/11/06 04:43:07;;;;;;;9.07;2.90;;;11.10;53.40;;;;;;6193520;28;20030;-70
2021/11/06 04:46:09;;;;;;;4.88;2.30;;;11.10;53.30;;;;;;6193718;28;20372;-70
2021/11/06 04:49:09;;;;;;;6.60;2.78;;;11.10;53.30;;;;;;6194422;28;20042;-70
2021/11/06 04:52:10;;;;;;;5.00;2.22;;;11.10;53.40;;;;;;6195803;28;20026;-70
2021/11/06 04:55:14;;;;;;;6.70;2.90;;;11.10;53.40;;;;;;6192478;28;20376;-69
2021/11/06 04:58:18;;;;;;;7.78;3.72;;;11.00;53.30;;;;;;6196216;28;20105;-70
2021/11/06 05:01:19;;;;;;;17.20;4.65;;;10.90;53.30;;;;;;6198118;28;20023;-69
2021/11/06 05:04:19;;;;;;;11.23;5.40;;;10.90;53.40;;;;;;6191720;28;20367;-70
2021/11/06 05:07:20;;;;;;;9.20;4.35;;;10.80;53.50;;;;;;6196918;28;20050;-69
2021/11/06 05:10:21;;;;;;;9.82;4.40;;;10.80;53.60;;;;;;6189536;28;20061;-70
2021/11/06 05:13:22;;;;;;;9.38;4.63;;;10.80;53.60;;;;;;6177954;28;20056;-70
2021/11/06 05:16:23;;;;;;;9.73;4.57;;;10.80;53.60;;;;;;6195598;28;20029;-70
2021/11/06 05:19:24;;;;;;;11.40;3.70;;;10.80;53.50;;;;;;6196469;28;20424;-70
2021/11/06 05:22:26;;;;;;;8.73;3.90;;;10.70;53.70;;;;;;6196152;28;20057;-70
2021/11/06 05:25:27;;;;;;;13.45;4.22;;;10.60;53.80;;;;;;6192917;28;20027;-70
2021/11/06 05:28:28;;;;;;;7.93;5.22;;;10.60;54.00;;;;;;6190197;28;21185;-70
2021/11/06 05:31:29;;;;;;;12.93;7.13;;;10.60;54.00;;;;;;6195050;28;20530;-69
2021/11/06 05:34:30;;;;;;;10.25;5.72;;;10.60;54.10;;;;;;6196063;28;20035;-69
2021/11/06 05:37:31;;;;;;;7.80;4.80;;;10.60;54.20;;;;;;6197197;28;20030;-70
2021/11/06 05:40:32;;;;;;;6.55;4.43;;;10.60;54.30;;;;;;6193021;28;20444;-70
2021/11/06 05:43:33;;;;;;;12.10;5.32;;;10.60;54.20;;;;;;6198823;28;20062;-70
2021/11/06 05:46:34;;;;;;;14.43;5.65;;;10.60;54.30;;;;;;6201995;28;20057;-70
2021/11/06 05:49:35;;;;;;;11.25;5.53;;;10.60;54.30;;;;;;6199951;28;20034;-70
2021/11/06 05:52:37;;;;;;;12.32;6.07;;;10.60;54.40;;;;;;6198052;28;20041;-70
2021/11/06 05:55:38;;;;;;;8.57;5.40;;;10.60;54.40;;;;;;6198457;28;20026;-70
2021/11/06 05:58:39;;;;;;;10.63;5.00;;;10.60;54.40;;;;;;6197230;28;20030;-70
2021/11/06 06:01:40;;;;;;;10.43;5.53;;;10.60;54.30;;;;;;6200272;28;20352;-70
2021/11/06 06:04:41;;;;;;;20.58;4.70;;;10.50;54.30;;;;;;6194254;28;20030;-71
2021/11/06 06:07:42;;;;;;;5.25;2.63;;;10.60;54.30;;;;;;6199205;28;20026;-70
2021/11/06 06:10:44;;;;;;;6.70;3.38;;;10.50;54.40;;;;;;6197348;28;20045;-70
2021/11/06 06:13:45;;;;;;;5.28;2.60;;;10.50;54.40;;;;;;6198673;28;20114;-70
2021/11/06 06:16:45;;;;;;;7.85;3.00;;;10.50;54.40;;;;;;6201377;28;20022;-71
2021/11/06 06:19:46;;;;;;;6.32;2.92;;;10.50;54.40;;;;;;6198076;28;20456;-70
2021/11/06 06:22:47;;;;;;;5.00;2.60;;;10.50;54.40;;;;;;6199969;28;20507;-70
2021/11/06 06:25:49;;;;;;;6.97;2.42;;;10.40;54.40;;;;;;6212182;28;20036;-71
2021/11/06 06:28:50;;;;;;;6.18;2.80;;;10.40;54.40;;;;;;6191396;28;20624;-70
2021/11/06 06:31:51;;;;;;;6.82;2.63;;;10.40;54.40;;;;;;6198652;28;20172;-71
2021/11/06 06:34:52;;;;;;;5.93;3.25;;;10.40;54.40;;;;;;6196992;28;20026;-71
2021/11/06 06:37:53;;;;;;;4.22;2.63;;;10.50;54.40;;;;;;6194893;28;20018;-71
2021/11/06 06:40:54;;;;;;;3.47;2.15;;;10.50;54.30;;;;;;6198413;28;20038;-69
2021/11/06 06:43:55;;;;;;;5.53;2.30;;;10.50;54.20;;;;;;6200191;28;20408;-70
2021/11/06 06:46:56;;;;;;;6.95;2.33;;;10.50;54.10;;;;;;6195809;28;20025;-70
2021/11/06 06:49:57;;;;;;;6.60;2.47;;;10.50;54.00;;;;;;6196154;28;20035;-70
2021/11/06 06:52:58;;;;;;;7.10;2.70;;;10.50;54.00;;;;;;6198550;28;20073;-70
2021/11/06 06:55:59;;;;;;;6.60;2.40;;;10.50;53.90;;;;;;6199429;28;20022;-70
2021/11/06 06:59:00;;;;;;;4.60;2.30;;;10.50;53.90;;;;;;6199475;28;20022;-70
2021/11/06 07:02:02;;;;;;;11.23;2.92;;;10.40;53.80;;;;;;6199387;28;20100;-71
2021/11/06 07:05:04;;;;;;;10.02;2.70;;;10.40;53.80;;;;;;6194298;28;20026;-71
2021/11/06 07:08:06;;;;;;;6.63;2.05;;;10.50;53.80;;;;;;6197708;28;20030;-71
2021/11/06 07:11:07;;;;;;;6.28;2.47;;;10.50;53.70;;;;;;6194211;28;20050;-71
2021/11/06 07:14:26;;;;;;;4.00;2.25;;;10.50;53.70;;;;;;6196144;28;20038;-75
2021/11/06 07:17:27;;;;;;;3.33;2.22;;;10.60;53.40;;;;;;6198330;28;20029;-73
2021/11/06 07:20:28;;;;;;;7.47;2.28;;;10.60;53.30;;;;;;6196433;28;20022;-73
2021/11/06 07:23:29;;;;;;;8.02;2.72;;;10.60;53.30;;;;;;6197737;28;20109;-69
2021/11/06 07:26:31;;;;;;;5.65;2.28;;;10.70;53.20;;;;;;6197957;28;20033;-69
2021/11/06 07:29:32;;;;;;;4.38;2.08;;;10.70;53.20;;;;;;6209379;28;20364;-69
2021/11/06 07:32:34;;;;;;;6.57;2.47;;;10.80;53.10;;;;;;6207561;28;20030;-70
2021/11/06 07:35:35;;;;;;;6.40;2.38;;;10.80;52.90;;;;;;6194634;28;20105;-70
2021/11/06 07:38:36;;;;;;;7.75;2.67;;;10.90;52.90;;;;;;6195847;28;20026;-71
2021/11/06 07:41:37;;;;;;;5.63;2.42;;;10.90;52.60;;;;;;6196999;28;20038;-70
2021/11/06 07:44:39;;;;;;;8.35;3.10;;;10.90;52.40;;;;;;6196560;28;20109;-68
2021/11/06 07:47:40;;;;;;;7.78;3.47;;;10.90;52.40;;;;;;6197643;28;20088;-68
2021/11/06 07:50:41;;;;;;;5.20;2.38;;;10.90;52.40;;;;;;6191788;28;20521;-70
2021/11/06 07:53:42;;;;;;;3.20;2.33;;;11.00;52.40;;;;;;6195279;28;20038;-71
2021/11/06 07:56:44;;;;;;;5.57;2.47;;;11.10;52.20;;;;;;6195148;28;20031;-69
2021/11/06 07:59:44;;;;;;;7.35;2.58;;;11.10;52.00;;;;;;6196370;28;20100;-71
2021/11/06 08:02:46;;;;;;;5.65;2.67;;;11.20;51.90;;;;;;6195076;28;20094;-71
2021/11/06 08:05:47;;;;;;;6.63;3.22;;;11.20;51.70;;;;;;6195218;28;20028;-70
2021/11/06 08:08:50;;;;;;;5.40;2.65;;;11.30;51.50;;;;;;6191971;28;20031;-70
2021/11/06 08:11:51;;;;;;;4.32;2.80;;;11.30;51.30;;;;;;6197075;28;20090;-69
2021/11/06 08:14:52;;;;;;;5.15;2.42;;;11.30;51.10;;;;;;6196146;28;20037;-70
2021/11/06 08:17:53;;;;;;;4.18;2.58;;;11.40;51.10;;;;;;6197764;28;20463;-69
2021/11/06 08:20:54;;;;;;;7.22;2.78;;;11.40;51.00;;;;;;6196363;28;20033;-69
2021/11/06 08:23:55;;;;;;;7.55;2.50;;;11.40;50.80;;;;;;6192125;28;20037;-70
2021/11/06 08:26:56;;;;;;;4.82;2.35;;;11.40;50.80;;;;;;6195701;28;20033;-70
2021/11/06 08:29:57;;;;;;;6.07;2.53;;;11.50;50.70;;;;;;6209394;28;20022;-70
2021/11/06 08:33:01;;;;;;;4.63;2.17;;;11.50;50.50;;;;;;6195698;28;20031;-70
2021/11/06 08:36:03;;;;;;;3.95;2.22;;;11.50;50.40;;;;;;6192426;28;20030;-69
2021/11/06 08:39:05;;;;;;;10.80;3.10;;;11.60;50.40;;;;;;6198072;28;20041;-69
2021/11/06 08:42:07;;;;;;;4.05;2.15;;;11.70;50.30;;;;;;6194425;28;20424;-70
2021/11/06 08:45:10;;;;;;;5.18;2.40;;;11.70;50.10;;;;;;6209213;28;20073;-69
2021/11/06 08:48:11;;;;;;;6.00;2.17;;;11.70;50.00;;;;;;6195152;28;20057;-70
2021/11/06 08:51:12;;;;;;;4.35;2.10;;;11.70;49.80;;;;;;6208485;28;20026;-69
2021/11/06 08:54:14;;;;;;;4.30;1.98;;;11.80;49.90;;;;;;6196225;28;20037;-71
2021/11/06 08:57:17;;;;;;;4.20;1.95;;;11.80;49.70;;;;;;6194190;28;20018;-70
2021/11/06 09:00:31;;;;;;;5.90;2.30;;;11.80;49.60;;;;;;6193393;28;20030;-71
2021/11/06 09:03:33;;;;;;;7.00;2.25;;;11.80;49.60;;;;;;6192866;28;20034;-70
2021/11/06 09:06:34;;;;;;;6.15;2.58;;;11.90;49.50;;;;;;6192206;28;20037;-72
2021/11/06 09:09:35;;;;;;;3.33;1.90;;;11.90;49.30;;;;;;6190645;28;20448;-71
2021/11/06 09:12:36;;;;;;;5.05;2.53;;;12.00;49.20;;;;;;6196429;28;20046;-71
2021/11/06 09:15:37;;;;;;;10.48;2.65;;;12.00;49.10;;;;;;6195896;28;20034;-71
2021/11/06 09:18:39;;;;;;;3.88;2.22;;;12.00;49.20;;;;;;6195769;28;20665;-70
2021/11/06 09:21:42;;;;;;;4.63;1.98;;;12.20;49.10;;;;;;6201413;28;20026;-71
2021/11/06 09:24:43;;;;;;;4.07;2.10;;;12.30;49.00;;;;;;6214777;28;20030;-70
2021/11/06 09:27:45;;;;;;;6.60;2.33;;;12.40;48.80;;;;;;6197023;28;20416;-71
2021/11/06 09:30:46;;;;;;;6.07;2.78;;;12.60;48.50;;;;;;6183190;28;20360;-71
2021/11/06 09:33:47;;;;;;;3.70;2.03;;;12.70;48.20;;;;;;6201232;28;20026;-71
2021/11/06 09:36:49;;;;;;;2.80;1.83;;;12.80;48.10;;;;;;6200677;28;20064;-70
2021/11/06 09:39:53;;;;;;;3.67;2.20;;;12.80;47.80;;;;;;6199545;28;20050;-71
2021/11/06 09:42:54;;;;;;;5.03;2.28;;;12.80;47.70;;;;;;6200586;28;20113;-71
2021/11/06 09:45:58;;;;;;;7.93;2.88;;;12.80;47.60;;;;;;6195746;28;20037;-71
2021/11/06 09:48:59;;;;;;;4.32;2.28;;;12.80;47.80;;;;;;6197561;28;20150;-70
2021/11/06 09:52:00;;;;;;;4.07;2.67;;;12.90;48.00;;;;;;6197960;28;20018;-71
2021/11/06 09:55:01;;;;;;;3.58;2.30;;;13.20;47.70;;;;;;6200440;28;20026;-73
2021/11/06 09:58:02;;;;;;;7.65;2.97;;;13.40;46.90;;;;;;6194912;28;20029;-76
2021/11/06 10:01:04;;;;;;;17.75;6.70;;;13.50;46.80;;;;;;6197315;28;20317;-73
2021/11/06 10:04:09;;;;;;;5.38;2.47;;;13.60;46.40;;;;;;6213298;28;20058;-73
2021/11/06 10:07:21;;;;;;;4.63;2.50;;;13.80;46.30;;;;;;6197973;28;20081;-73
2021/11/06 10:10:22;;;;;;;9.10;2.88;;;14.00;45.70;;;;;;6195874;28;20028;-72
2021/11/06 10:13:23;;;;;;;5.13;2.40;;;14.10;45.40;;;;;;6199921;28;20027;-70
2021/11/06 10:16:38;;;;;;;4.53;2.63;;;14.40;45.10;;;;;;6212195;28;20360;-72
2021/11/06 10:19:43;;;;;;;5.47;2.13;;;14.80;44.80;;;;;;6197074;28;20031;-74
2021/11/06 10:22:45;;;;;;;5.40;3.03;;;15.10;44.00;;;;;;6201686;28;20452;-74
2021/11/06 10:25:45;;;;;;;4.80;2.22;;;15.50;43.50;;;;;;6196106;28;20040;-74
2021/11/06 10:29:14;;;;;;;4.65;2.53;;;15.80;43.00;;;;;;6197171;28;20030;-73
2021/11/06 10:32:14;;;;;;;5.90;2.40;;;16.10;43.20;;;;;;6123831;29;20032;-73
2021/11/06 10:35:18;;;;;;;7.15;3.33;;;16.30;41.90;;;;;;6126154;29;20373;-73
2021/11/06 10:38:22;;;;;;;10.95;5.35;;;16.40;41.40;;;;;;6110141;29;20508;-74
2021/11/06 10:41:27;;;;;;;5.90;3.10;;;16.40;40.80;;;;;;6123111;29;20044;-73
2021/11/06 10:44:28;;;;;;;5.38;2.55;;;16.40;40.80;;;;;;6110901;29;20038;-72
2021/11/06 10:48:01;;;;;;;4.03;2.45;;;16.30;40.80;;;;;;6125674;29;20040;-73
2021/11/06 10:51:06;;;;;;;5.72;2.78;;;16.30;40.90;;;;;;6110166;29;20122;-74
2021/11/06 10:54:07;;;;;;;4.70;2.60;;;16.30;40.90;;;;;;6106918;29;20042;-74
2021/11/06 10:57:08;;;;;;;5.53;2.47;;;16.40;41.00;;;;;;6111486;29;20075;-74
2021/11/06 11:00:14;;;;;;;4.03;2.20;;;16.50;40.90;;;;;;6124295;29;20028;-73
2021/11/06 11:03:24;;;;;;;4.10;2.47;;;16.60;40.80;;;;;;6109058;29;20138;-74
2021/11/06 11:06:34;;;;;;;4.63;1.83;;;16.60;40.50;;;;;;6124077;29;20414;-73
2021/11/06 11:09:37;;;;;;;6.53;2.47;;;16.60;40.40;;;;;;6156148;28;20034;-73
2021/11/06 11:12:38;;;;;;;3.55;2.00;;;16.60;40.40;;;;;;6197499;28;20034;-73
2021/11/06 11:15:41;;;;;;;3.13;1.65;;;16.70;40.30;;;;;;6197968;28;20041;-77
2021/11/06 11:18:48;;;;;;;4.57;2.90;;;16.90;39.70;;;;;;6198013;28;20018;-72
2021/11/06 11:21:49;;;;;;;3.90;2.15;;;17.30;38.90;;;;;;6196619;28;20038;-74
2021/11/06 11:24:51;;;;;;;6.32;2.25;;;17.70;38.10;;;;;;6192946;28;20030;-74
2021/11/06 11:27:52;;;;;;;4.00;2.17;;;18.30;37.20;;;;;;6194202;28;20039;-75
2021/11/06 11:30:54;;;;;;;5.90;3.42;;;18.70;36.20;;;;;;6194689;28;20109;-74
2021/11/06 11:33:57;;;;;;;6.20;2.67;;;19.20;35.60;;;;;;6197479;28;20030;-74
2021/11/06 11:36:59;;;;;;;3.88;2.20;;;19.70;34.70;;;;;;6194680;28;20145;-74
2021/11/06 11:40:01;;;;;;;6.60;2.20;;;19.80;33.90;;;;;;6193672;28;20578;-74
2021/11/06 11:43:28;;;;;;;3.95;2.38;;;19.60;34.40;;;;;;6190258;28;20033;-73
2021/11/06 11:47:03;;;;;;;5.55;2.42;;;19.20;34.70;;;;;;6175474;28;20474;-74
2021/11/06 11:50:10;;;;;;;7.75;2.47;;;18.70;35.40;;;;;;6190496;28;20026;-74
2021/11/06 11:53:26;;;;;;;8.50;2.00;;;18.40;36.00;;;;;;6197016;28;20316;-74
2021/11/06 11:56:29;;;;;;;3.10;1.90;;;18.00;36.30;;;;;;6190022;28;20368;-74
2021/11/06 11:59:32;;;;;;;4.82;2.17;;;17.70;36.50;;;;;;6195863;28;20026;-75
2021/11/06 12:02:33;;;;;;;3.38;1.73;;;17.70;36.90;;;;;;6195630;28;20089;-75
2021/11/06 12:05:43;;;;;;;4.25;2.10;;;17.70;36.90;;;;;;6194765;28;20027;-75
2021/11/06 12:08:44;;;;;;;3.15;1.83;;;17.60;36.80;;;;;;6173689;28;20023;-74
2021/11/06 12:11:56;;;;;;;5.38;2.58;;;17.40;37.10;;;;;;6192065;28;20368;-73
2021/11/06 12:14:57;;;;;;;5.32;2.33;;;17.10;37.40;;;;;;6191546;28;20088;-74
2021/11/06 12:17:57;;;;;;;3.70;2.17;;;16.90;37.70;;;;;;6192103;28;20452;-74
2021/11/06 12:21:24;;;;;;;3.38;1.88;;;16.70;38.10;;;;;;6194443;28;20026;-74
2021/11/06 12:24:28;;;;;;;5.18;2.13;;;16.60;38.40;;;;;;6203912;28;20118;-74
2021/11/06 12:27:37;;;;;;;3.65;1.95;;;16.50;38.60;;;;;;6191350;28;20041;-74
2021/11/06 12:30:38;;;;;;;3.38;1.92;;;16.40;38.70;;;;;;6196280;28;20058;-74
2021/11/06 12:33:45;;;;;;;7.13;2.75;;;16.40;38.80;;;;;;6194361;28;20034;-75
2021/11/06 12:36:46;;;;;;;4.77;2.00;;;16.40;38.80;;;;;;6191360;28;20022;-75
2021/11/06 12:39:53;;;;;;;13.00;1.80;;;16.40;38.90;;;;;;6177232;28;20430;-73
2021/11/06 12:43:09;;;;;;;2.22;1.60;;;16.40;38.90;;;;;;6174308;28;20054;-74
2021/11/06 12:46:26;;;;;;;3.00;1.90;;;16.40;38.70;;;;;;6192003;28;20121;-75
2021/11/06 12:49:27;;;;;;;2.78;1.52;;;16.40;38.50;;;;;;6188769;28;20040;-76
2021/11/06 12:52:28;;;;;;;3.28;1.98;;;16.40;38.40;;;;;;6190612;28;20068;-76
2021/11/06 12:55:29;;;;;;;3.38;1.90;;;16.40;38.40;;;;;;6193362;28;20022;-77
2021/11/06 12:58:32;;;;;;;4.20;1.85;;;16.40;38.40;;;;;;6197745;28;20027;-74
2021/11/06 13:01:37;;;;;;;6.35;2.08;;;16.50;38.50;;;;;;6179678;28;20022;-76
2021/11/06 13:04:39;;;;;;;5.05;2.33;;;16.50;38.30;;;;;;6192816;28;20034;-76
2021/11/06 13:07:40;;;;;;;3.65;2.33;;;16.50;38.20;;;;;;6196745;28;20120;-77
2021/11/06 13:10:41;;;;;;;4.35;2.05;;;16.40;38.30;;;;;;6193599;28;20054;-77
2021/11/06 13:13:54;;;;;;;5.05;2.40;;;16.40;38.40;;;;;;6196048;28;20026;-77
2021/11/06 13:17:07;;;;;;;4.72;1.98;;;16.50;38.50;;;;;;6197170;28;20034;-77
2021/11/06 13:20:15;;;;;;;2.58;1.88;;;16.50;38.40;;;;;;6194181;28;20035;-79
2021/11/06 13:23:17;;;;;;;4.22;2.03;;;16.50;38.30;;;;;;6189425;28;20096;-76
2021/11/06 13:26:18;;;;;;;4.18;2.10;;;16.50;38.40;;;;;;6190466;28;20071;-77
2021/11/06 13:29:23;;;;;;;5.90;2.90;;;16.50;38.40;;;;;;6194279;28;20034;-78
2021/11/06 13:32:24;;;;;;;4.43;2.22;;;16.40;38.50;;;;;;6196948;28;20030;-77
2021/11/06 13:35:28;;;;;;;2.92;2.00;;;16.20;38.70;;;;;;6189412;28;20084;-77
2021/11/06 13:38:56;;;;;;;10.00;2.30;;;16.10;39.00;;;;;;6195303;28;20053;-77
2021/11/06 13:41:57;;;;;;;3.80;2.50;;;15.90;39.30;;;;;;6193829;28;20040;-77
2021/11/06 13:45:11;;;;;;;3.38;2.15;;;15.90;39.50;;;;;;6192140;28;20463;-76
2021/11/06 13:48:20;;;;;;;7.57;2.85;;;15.90;39.70;;;;;;6193776;28;20065;-76
2021/11/06 13:51:21;;;;;;;3.45;2.05;;;15.90;39.90;;;;;;6191312;28;20174;-76
2021/11/06 13:54:29;;;;;;;3.78;1.98;;;15.90;40.20;;;;;;6195575;28;20038;-76
2021/11/06 13:57:30;;;;;;;3.38;2.15;;;15.90;40.20;;;;;;6193390;28;20062;-77
2021/11/06 14:00:31;;;;;;;8.52;2.40;;;15.90;40.30;;;;;;6194472;28;20106;-76
2021/11/06 14:03:32;;;;;;;5.80;2.33;;;15.90;40.30;;;;;;6191033;28;20649;-77
2021/11/06 14:06:41;;;;;;;3.50;2.28;;;16.00;40.40;;;;;;6196163;28;20160;-77
2021/11/06 14:09:48;;;;;;;5.22;2.25;;;15.90;40.50;;;;;;6199320;28;20030;-76
2021/11/06 14:13:06;;;;;;;3.38;2.47;;;15.90;40.70;;;;;;6195611;28;20069;-76
2021/11/06 14:16:19;;;;;;;2.95;1.80;;;15.90;40.90;;;;;;6199904;28;20034;-77
2021/11/06 14:19:20;;;;;;;4.85;2.53;;;15.80;41.00;;;;;;6198900;28;20042;-77
2021/11/06 14:22:33;;;;;;;5.63;2.72;;;15.90;41.10;;;;;;6195335;28;20049;-76
2021/11/06 14:25:41;;;;;;;4.13;2.70;;;15.80;41.20;;;;;;6196700;28;20454;-77
2021/11/06 14:28:52;;;;;;;5.28;2.80;;;15.70;41.50;;;;;;6214974;28;20434;-76
2021/11/06 14:31:57;;;;;;;5.35;2.88;;;15.70;41.70;;;;;;6182664;28;20375;-77
2021/11/06 14:35:10;;;;;;;5.28;3.28;;;15.60;41.90;;;;;;6213047;28;20467;-77
2021/11/06 14:38:10;;;;;;;6.85;3.50;;;15.60;42.30;;;;;;6198442;28;20018;-77
2021/11/06 14:41:13;;;;;;;6.80;3.35;;;15.40;42.60;;;;;;6199949;28;20110;-76
2021/11/06 14:44:19;;;;;;;7.22;3.75;;;15.30;43.00;;;;;;6182451;28;20042;-77
2021/11/06 14:47:26;;;;;;;7.50;3.35;;;15.30;43.40;;;;;;6211129;28;20026;-76
2021/11/06 14:50:27;;;;;;;6.32;3.35;;;15.20;43.70;;;;;;6194260;28;20116;-77
2021/11/06 14:53:28;;;;;;;4.97;3.03;;;15.10;43.90;;;;;;6195996;28;20034;-76
2021/11/06 14:56:38;;;;;;;8.10;3.70;;;15.10;44.10;;;;;;6197912;28;20019;-75
2021/11/06 14:59:39;;;;;;;7.22;2.67;;;15.10;44.30;;;;;;6182958;28;20423;-75
2021/11/06 15:02:54;;;;;;;4.35;2.67;;;15.00;44.50;;;;;;6195123;28;20444;-75
2021/11/06 15:05:55;;;;;;;6.70;3.78;;;14.90;44.70;;;;;;6198739;28;20034;-74
2021/11/06 15:08:57;;;;;;;6.15;3.45;;;14.80;44.90;;;;;;6198766;28;20062;-73
2021/11/06 15:11:59;;;;;;;7.57;3.80;;;14.80;45.20;;;;;;6198120;28;20478;-74
2021/11/06 15:15:00;;;;;;;6.18;3.38;;;14.70;45.40;;;;;;6176424;28;20392;-74
2021/11/06 15:18:04;;;;;;;6.05;3.60;;;14.60;45.70;;;;;;6196239;28;20146;-75
2021/11/06 15:21:05;;;;;;;13.40;3.95;;;14.50;45.90;;;;;;6192302;28;20336;-75
2021/11/06 15:24:06;;;;;;;6.00;3.70;;;14.40;46.40;;;;;;6195482;28;20474;-75
2021/11/06 15:27:07;;;;;;;7.07;3.50;;;14.40;46.70;;;;;;6192955;28;20114;-75
2021/11/06 15:30:09;;;;;;;8.70;3.83;;;14.30;46.90;;;;;;6197604;28;20049;-74
2021/11/06 15:33:10;;;;;;;6.97;3.65;;;14.20;47.60;;;;;;6198086;28;20467;-75
2021/11/06 15:36:11;;;;;;;5.07;3.25;;;14.20;47.20;;;;;;6198507;28;20030;-73
2021/11/06 15:39:13;;;;;;;8.18;3.13;;;14.10;47.50;;;;;;6196884;28;20042;-74
2021/11/06 15:42:15;;;;;;;6.25;3.75;;;14.00;47.90;;;;;;6198378;28;20314;-75
2021/11/06 15:45:17;;;;;;;10.13;4.40;;;13.90;48.10;;;;;;6182297;28;20100;-74
2021/11/06 15:48:18;;;;;;;9.65;3.50;;;13.80;48.30;;;;;;6197485;28;20030;-74
2021/11/06 15:51:38;;;;;;;7.13;4.00;;;13.80;48.40;;;;;;6196324;28;20030;-75